createdAt,value
2022-11-12T00:00:04.914Z,4.26
2022-11-12T00:01:04.927Z,4.30
2022-11-12T00:02:04.942Z,4.29
2022-11-12T00:03:04.887Z,4.18
2022-11-12T00:04:04.884Z,4.09
2022-11-12T00:05:04.843Z,4.09
2022-11-12T00:06:04.836Z,4.06
2022-11-12T00:07:04.941Z,4.05
2022-11-12T00:08:04.830Z,3.96
2022-11-12T00:09:04.828Z,4.05
2022-11-12T00:10:04.828Z,3.91
2022-11-12T00:11:04.783Z,3.93
2022-11-12T00:12:04.768Z,3.97
2022-11-12T00:13:04.839Z,3.88
2022-11-12T00:14:04.900Z,3.88
2022-11-12T00:15:04.762Z,3.88
2022-11-12T00:16:04.726Z,3.78
2022-11-12T00:17:04.727Z,3.84
2022-11-12T00:18:04.713Z,3.86
2022-11-12T00:19:04.726Z,3.79
2022-11-12T00:20:04.726Z,3.83
2022-11-12T00:21:04.688Z,3.86
2022-11-12T00:22:04.658Z,3.87
2022-11-12T00:23:04.644Z,3.88
2022-11-12T00:24:04.670Z,3.87
2022-11-12T00:25:04.665Z,4.05
2022-11-12T00:26:04.665Z,4.00
2022-11-12T00:27:04.635Z,4.02
2022-11-12T00:28:04.595Z,3.94
2022-11-12T00:29:04.604Z,4.05
2022-11-12T00:30:04.709Z,4.04
2022-11-12T00:31:04.566Z,4.06
2022-11-12T00:32:04.592Z,3.98
2022-11-12T00:33:04.578Z,4.00
2022-11-12T00:34:04.539Z,4.00
2022-11-12T00:35:04.541Z,4.02
2022-11-12T00:36:04.511Z,4.04
2022-11-12T00:37:04.509Z,3.98
2022-11-12T00:38:04.505Z,4.08
2022-11-12T00:39:04.531Z,4.04
2022-11-12T00:40:04.523Z,4.00
2022-11-12T00:41:04.465Z,4.06
2022-11-12T00:42:04.442Z,4.08
2022-11-12T00:43:04.448Z,4.11
2022-11-12T00:44:04.447Z,4.09
2022-11-12T00:45:04.462Z,4.15
2022-11-12T00:46:04.531Z,4.12
2022-11-12T00:47:04.390Z,4.12
2022-11-12T00:48:04.411Z,4.09
2022-11-12T00:49:04.387Z,4.05
2022-11-12T00:50:04.345Z,4.02
2022-11-12T00:51:04.440Z,3.87
2022-11-12T00:52:04.329Z,3.83
2022-11-12T00:53:04.343Z,3.72
2022-11-12T00:54:04.320Z,3.65
2022-11-12T00:55:04.331Z,3.66
2022-11-12T00:56:04.370Z,3.62
2022-11-12T00:57:04.328Z,3.76
2022-11-12T00:58:04.259Z,3.62
2022-11-12T00:59:04.277Z,3.68
2022-11-12T01:00:04.259Z,3.79
2022-11-12T01:01:04.310Z,3.83
2022-11-12T01:02:04.323Z,3.80
2022-11-12T01:03:04.271Z,3.84
2022-11-12T01:04:04.278Z,3.84
2022-11-12T01:05:04.190Z,3.79
2022-11-12T01:06:04.216Z,3.73
2022-11-12T01:07:04.206Z,3.69
2022-11-12T01:08:04.147Z,3.54
2022-11-12T01:09:04.137Z,3.62
2022-11-12T01:10:04.184Z,3.69
2022-11-12T01:11:04.181Z,3.75
2022-11-12T01:12:04.142Z,3.75
2022-11-12T01:13:04.161Z,3.61
2022-11-12T01:14:04.082Z,3.80
2022-11-12T01:15:04.110Z,3.68
2022-11-12T01:16:04.089Z,3.69
2022-11-12T01:17:04.095Z,3.78
2022-11-12T01:18:04.160Z,3.83
2022-11-12T01:19:04.070Z,3.86
2022-11-12T01:20:04.013Z,3.73
2022-11-12T01:21:04.012Z,3.79
2022-11-12T01:22:04.003Z,3.73
2022-11-12T01:23:04.009Z,3.76
2022-11-12T01:24:04.153Z,3.72
2022-11-12T01:25:03.957Z,3.66
2022-11-12T01:26:03.947Z,3.73
2022-11-12T01:27:03.950Z,3.60
2022-11-12T01:28:03.938Z,3.55
2022-11-12T01:29:04.047Z,3.60
2022-11-12T01:30:03.969Z,3.54
2022-11-12T01:31:03.890Z,3.61
2022-11-12T01:32:03.893Z,3.60
2022-11-12T01:33:03.889Z,3.57
2022-11-12T01:34:04.029Z,3.54
2022-11-12T01:35:03.879Z,3.58
2022-11-12T01:36:03.915Z,3.52
2022-11-12T01:37:03.823Z,3.61
2022-11-12T01:38:03.828Z,3.58
2022-11-12T01:39:03.811Z,3.70
2022-11-12T01:40:03.818Z,3.62
2022-11-12T01:41:03.828Z,3.68
2022-11-12T01:42:03.833Z,3.69
2022-11-12T01:43:03.757Z,3.61
2022-11-12T01:44:03.767Z,3.78
2022-11-12T01:45:03.785Z,3.73
2022-11-12T01:46:03.746Z,3.72
2022-11-12T01:47:03.797Z,3.76
2022-11-12T01:48:03.773Z,3.79
2022-11-12T01:49:03.693Z,3.76
2022-11-12T01:50:03.826Z,3.66
2022-11-12T01:51:03.692Z,3.69
2022-11-12T01:52:03.686Z,3.68
2022-11-12T01:53:03.692Z,3.69
2022-11-12T01:54:03.700Z,3.66
2022-11-12T01:55:03.634Z,3.66
2022-11-12T01:56:03.650Z,3.66
2022-11-12T01:57:03.625Z,3.62
2022-11-12T01:58:03.621Z,3.83
2022-11-12T01:59:03.579Z,3.87
2022-11-12T02:00:03.629Z,3.91
2022-11-12T02:01:03.734Z,3.88
2022-11-12T02:02:03.562Z,3.91
2022-11-12T02:03:03.565Z,3.90
2022-11-12T02:04:03.570Z,3.90
2022-11-12T02:05:03.511Z,3.88
2022-11-12T02:06:03.615Z,3.87
2022-11-12T02:07:03.634Z,3.86
2022-11-12T02:08:11.487Z,3.78
2022-11-12T02:09:03.505Z,3.88
2022-11-12T02:10:03.454Z,3.87
2022-11-12T02:11:03.456Z,3.86
2022-11-12T02:12:03.433Z,3.90
2022-11-12T02:13:03.429Z,3.97
2022-11-12T02:14:03.438Z,4.00
2022-11-12T02:15:03.447Z,4.06
2022-11-12T02:16:03.388Z,4.02
2022-11-12T02:17:03.417Z,4.14
2022-11-12T02:18:03.387Z,4.20
2022-11-12T02:19:03.369Z,4.20
2022-11-12T02:20:03.411Z,4.12
2022-11-12T02:21:03.350Z,4.18
2022-11-12T02:22:03.430Z,4.22
2022-11-12T02:23:03.314Z,4.20
2022-11-12T02:24:03.324Z,4.11
2022-11-12T02:25:03.324Z,4.23
2022-11-12T02:26:03.331Z,4.29
2022-11-12T02:27:03.267Z,4.20
2022-11-12T02:28:03.256Z,4.33
2022-11-12T02:29:03.258Z,4.33
2022-11-12T02:30:03.242Z,4.26
2022-11-12T02:31:03.245Z,4.16
2022-11-12T02:32:03.270Z,4.20
2022-11-12T02:33:03.199Z,4.20
2022-11-12T02:34:03.186Z,4.16
2022-11-12T02:35:03.176Z,4.20
2022-11-12T02:36:03.177Z,4.26
2022-11-12T02:37:03.181Z,4.29
2022-11-12T02:38:03.300Z,4.33
2022-11-12T02:39:03.132Z,4.42
2022-11-12T02:40:03.127Z,4.34
2022-11-12T02:41:03.130Z,4.40
2022-11-12T02:42:03.114Z,4.33
2022-11-12T02:43:03.119Z,4.33
2022-11-12T02:44:03.156Z,4.33
2022-11-12T02:45:03.064Z,4.36
2022-11-12T02:46:03.059Z,4.40
2022-11-12T02:47:03.080Z,4.47
2022-11-12T02:48:03.044Z,4.48
2022-11-12T02:49:03.049Z,4.30
2022-11-12T02:50:03.006Z,4.44
2022-11-12T02:51:03.064Z,4.44
2022-11-12T02:52:02.982Z,4.27
2022-11-12T02:53:03.009Z,4.30
2022-11-12T02:54:03.102Z,4.24
2022-11-12T02:55:02.988Z,4.27
2022-11-12T02:56:02.938Z,4.14
2022-11-12T02:57:02.937Z,4.23
2022-11-12T02:58:02.946Z,4.23
2022-11-12T02:59:02.946Z,4.18
2022-11-12T03:00:02.919Z,4.23
2022-11-12T03:01:02.972Z,4.14
2022-11-12T03:02:02.869Z,4.02
2022-11-12T03:03:02.880Z,4.12
2022-11-12T03:04:02.855Z,4.18
2022-11-12T03:05:02.908Z,4.24
2022-11-12T03:06:02.859Z,4.16
2022-11-12T03:07:02.861Z,4.20
2022-11-12T03:08:02.803Z,4.29
2022-11-12T03:09:02.793Z,4.40
2022-11-12T03:10:02.943Z,4.32
2022-11-12T03:11:02.831Z,4.41
2022-11-12T03:12:02.765Z,4.34
2022-11-12T03:13:02.756Z,4.47
2022-11-12T03:14:02.762Z,4.44
2022-11-12T03:15:02.734Z,4.45
2022-11-12T03:16:02.735Z,4.33
2022-11-12T03:17:02.755Z,4.42
2022-11-12T03:18:02.695Z,4.42
2022-11-12T03:19:02.693Z,4.41
2022-11-12T03:20:02.674Z,4.45
2022-11-12T03:21:02.674Z,4.45
2022-11-12T03:22:02.669Z,4.40
2022-11-12T03:23:02.683Z,4.29
2022-11-12T03:24:02.626Z,4.29
2022-11-12T03:25:02.640Z,4.33
2022-11-12T03:26:02.754Z,4.15
2022-11-12T03:27:02.612Z,4.12
2022-11-12T03:28:02.601Z,4.09
2022-11-12T03:29:02.607Z,4.04
2022-11-12T03:30:02.591Z,4.04
2022-11-12T03:31:02.559Z,4.04
2022-11-12T03:32:02.560Z,4.05
2022-11-12T03:33:02.536Z,4.05
2022-11-12T03:34:02.535Z,4.06
2022-11-12T03:35:02.519Z,4.00
2022-11-12T03:36:02.516Z,3.94
2022-11-12T03:37:02.501Z,4.04
2022-11-12T03:38:02.499Z,4.05
2022-11-12T03:39:03.117Z,4.05
2022-11-12T03:40:02.486Z,4.11
2022-11-12T03:41:02.438Z,4.04
2022-11-12T03:42:02.540Z,4.05
2022-11-12T03:43:02.442Z,4.02
2022-11-12T03:44:02.416Z,4.05
2022-11-12T03:45:02.447Z,4.02
2022-11-12T03:46:02.393Z,4.05
2022-11-12T03:47:02.371Z,4.00
2022-11-12T03:48:02.436Z,4.11
2022-11-12T03:49:02.376Z,4.09
2022-11-12T03:50:02.346Z,3.96
2022-11-12T03:51:02.349Z,3.98
2022-11-12T03:52:02.362Z,4.04
2022-11-12T03:53:02.303Z,4.02
2022-11-12T03:54:02.312Z,4.02
2022-11-12T03:55:02.312Z,3.96
2022-11-12T03:56:02.288Z,4.04
2022-11-12T03:57:02.292Z,4.00
2022-11-12T03:58:02.363Z,3.97
2022-11-12T03:59:02.235Z,3.96
2022-11-12T04:00:02.253Z,4.04
2022-11-12T04:01:02.272Z,4.05
2022-11-12T04:02:02.217Z,3.93
2022-11-12T04:03:02.229Z,3.90
2022-11-12T04:04:02.234Z,3.97
2022-11-12T04:05:02.175Z,3.94
2022-11-12T04:06:02.181Z,3.93
2022-11-12T04:07:02.195Z,3.94
2022-11-12T04:08:02.165Z,3.97
2022-11-12T04:09:02.123Z,3.98
2022-11-12T04:10:02.113Z,4.04
2022-11-12T04:11:02.187Z,4.02
2022-11-12T04:12:02.120Z,4.00
2022-11-12T04:13:02.105Z,4.00
2022-11-12T04:14:02.176Z,4.05
2022-11-12T04:15:02.084Z,4.11
2022-11-12T04:16:02.045Z,4.15
2022-11-12T04:17:02.056Z,4.18
2022-11-12T04:18:02.039Z,4.14
2022-11-12T04:19:02.036Z,4.15
2022-11-12T04:20:02.015Z,4.29
2022-11-12T04:21:01.992Z,4.34
2022-11-12T04:22:01.985Z,4.32
2022-11-12T04:23:02.005Z,4.26
2022-11-12T04:24:01.996Z,4.22
2022-11-12T04:25:01.966Z,4.22
2022-11-12T04:26:01.932Z,4.23
2022-11-12T04:27:01.921Z,4.11
2022-11-12T04:28:01.932Z,4.11
2022-11-12T04:29:01.953Z,4.08
2022-11-12T04:30:02.031Z,4.08
2022-11-12T04:31:01.886Z,4.09
2022-11-12T04:32:01.864Z,4.12
2022-11-12T04:33:01.858Z,4.08
2022-11-12T04:34:01.873Z,4.11
2022-11-12T04:35:01.910Z,4.05
2022-11-12T04:36:01.868Z,3.83
2022-11-12T04:37:01.825Z,3.83
2022-11-12T04:38:01.799Z,3.88
2022-11-12T04:39:01.790Z,3.93
2022-11-12T04:40:01.778Z,4.04
2022-11-12T04:41:01.805Z,4.02
2022-11-12T04:42:01.796Z,4.02
2022-11-12T04:43:01.806Z,4.05
2022-11-12T04:44:01.733Z,4.06
2022-11-12T04:45:01.745Z,4.06
2022-11-12T04:46:01.842Z,4.12
2022-11-12T04:47:01.713Z,4.06
2022-11-12T04:48:01.696Z,4.22
2022-11-12T04:49:01.739Z,4.22
2022-11-12T04:50:01.665Z,4.16
2022-11-12T04:51:01.684Z,4.14
2022-11-12T04:52:01.659Z,4.20
2022-11-12T04:53:01.652Z,4.26
2022-11-12T04:54:01.674Z,4.18
2022-11-12T04:55:01.696Z,4.16
2022-11-12T04:56:01.610Z,4.26
2022-11-12T04:57:01.589Z,4.23
2022-11-12T04:58:01.583Z,4.29
2022-11-12T04:59:01.593Z,4.29
2022-11-12T05:00:01.595Z,4.26
2022-11-12T05:01:01.610Z,4.32
2022-11-12T05:02:01.663Z,4.32
2022-11-12T05:03:01.537Z,4.34
2022-11-12T05:04:01.521Z,4.34
2022-11-12T05:05:01.504Z,4.33
2022-11-12T05:06:01.486Z,4.11
2022-11-12T05:07:01.565Z,4.14
2022-11-12T05:08:01.492Z,4.05
2022-11-12T05:09:01.468Z,4.00
2022-11-12T05:10:01.459Z,4.05
2022-11-12T05:11:01.475Z,3.91
2022-11-12T05:12:01.419Z,3.88
2022-11-12T05:13:01.413Z,3.84
2022-11-12T05:14:01.643Z,3.84
2022-11-12T05:15:01.398Z,3.87
2022-11-12T05:16:01.402Z,3.83
2022-11-12T05:17:01.382Z,3.84
2022-11-12T05:18:01.477Z,3.87
2022-11-12T05:19:01.370Z,3.88
2022-11-12T05:20:01.350Z,3.88
2022-11-12T05:21:01.332Z,3.97
2022-11-12T05:22:01.317Z,4.00
2022-11-12T05:23:08.244Z,3.98
2022-11-12T05:24:02.317Z,3.87
2022-11-12T05:25:01.292Z,3.88
2022-11-12T05:26:01.364Z,3.80
2022-11-12T05:27:01.274Z,3.90
2022-11-12T05:28:01.251Z,3.80
2022-11-12T05:29:04.959Z,3.84
2022-11-12T05:30:02.225Z,3.66
2022-11-12T05:31:01.338Z,3.57
2022-11-12T05:32:01.216Z,3.57
2022-11-12T05:33:01.216Z,3.52
2022-11-12T05:34:01.318Z,3.47
2022-11-12T05:35:01.253Z,3.32
2022-11-12T05:36:01.169Z,3.36
2022-11-12T05:37:01.145Z,3.32
2022-11-12T05:38:01.217Z,3.47
2022-11-12T05:39:01.124Z,3.43
2022-11-12T05:40:01.106Z,3.50
2022-11-12T05:41:01.110Z,3.45
2022-11-12T05:42:14.990Z,3.51
2022-11-12T05:43:02.102Z,3.57
2022-11-12T05:44:01.126Z,3.55
2022-11-12T05:45:01.064Z,3.52
2022-11-12T05:46:01.073Z,3.47
2022-11-12T05:47:01.039Z,3.45
2022-11-12T05:48:01.020Z,3.39
2022-11-12T05:49:01.023Z,3.33
2022-11-12T05:50:01.134Z,3.35
2022-11-12T05:51:16.478Z,3.33
2022-11-12T05:52:01.972Z,3.48
2022-11-12T05:53:00.983Z,3.35
2022-11-12T05:54:00.985Z,3.39
2022-11-12T05:55:00.953Z,3.42
2022-11-12T05:56:00.936Z,3.23
2022-11-12T05:57:00.971Z,3.14
2022-11-12T05:58:00.933Z,3.05
2022-11-12T05:59:00.894Z,3.11
2022-11-12T06:00:00.924Z,3.14
2022-11-12T06:01:00.892Z,3.03
2022-11-12T06:02:00.946Z,3.00
2022-11-12T06:03:00.958Z,3.11
2022-11-12T06:04:00.859Z,3.11
2022-11-12T06:05:00.860Z,3.13
2022-11-12T06:06:00.941Z,3.15
2022-11-12T06:07:00.859Z,3.17
2022-11-12T06:08:00.809Z,3.24
2022-11-12T06:09:00.780Z,3.31
2022-11-12T06:10:00.798Z,3.32
2022-11-12T06:11:00.787Z,3.32
2022-11-12T06:12:00.769Z,3.31
2022-11-12T06:13:00.772Z,3.36
2022-11-12T06:14:00.725Z,3.43
2022-11-12T06:15:00.713Z,3.32
2022-11-12T06:16:00.731Z,3.33
2022-11-12T06:17:00.705Z,3.32
2022-11-12T06:18:00.730Z,3.18
2022-11-12T06:19:00.705Z,3.17
2022-11-12T06:20:00.660Z,3.14
2022-11-12T06:21:00.664Z,3.20
2022-11-12T06:22:00.756Z,3.21
2022-11-12T06:23:00.632Z,3.26
2022-11-12T06:24:00.677Z,3.18
2022-11-12T06:25:00.603Z,3.32
2022-11-12T06:26:00.591Z,3.32
2022-11-12T06:27:00.592Z,3.42
2022-11-12T06:28:00.577Z,3.43
2022-11-12T06:29:00.587Z,3.36
2022-11-12T06:30:00.577Z,3.32
2022-11-12T06:31:00.588Z,3.33
2022-11-12T06:32:00.567Z,3.39
2022-11-12T06:33:00.514Z,3.33
2022-11-12T06:34:00.542Z,3.40
2022-11-12T06:35:00.508Z,3.39
2022-11-12T06:36:00.493Z,3.42
2022-11-12T06:37:00.500Z,3.28
2022-11-12T06:38:00.579Z,3.32
2022-11-12T06:39:00.469Z,3.47
2022-11-12T06:40:00.443Z,3.31
2022-11-12T06:41:00.448Z,3.32
2022-11-12T06:42:00.434Z,3.33
2022-11-12T06:43:00.440Z,3.32
2022-11-12T06:44:00.390Z,3.33
2022-11-12T06:45:00.419Z,3.42
2022-11-12T06:46:00.380Z,3.40
2022-11-12T06:47:00.389Z,3.35
2022-11-12T06:48:00.344Z,3.40
2022-11-12T06:49:00.381Z,3.40
2022-11-12T06:50:00.324Z,3.36
2022-11-12T06:51:00.325Z,3.35
2022-11-12T06:52:00.322Z,3.50
2022-11-12T06:53:00.303Z,3.47
2022-11-12T06:54:00.391Z,3.58
2022-11-12T06:55:00.311Z,3.50
2022-11-12T06:56:00.279Z,3.40
2022-11-12T06:57:00.260Z,3.42
2022-11-12T06:58:00.261Z,3.32
2022-11-12T06:59:00.220Z,3.40
2022-11-12T07:00:00.226Z,3.45
2022-11-12T07:01:00.216Z,3.36
2022-11-12T07:02:00.318Z,3.39
2022-11-12T07:03:00.192Z,3.36
2022-11-12T07:04:00.175Z,3.31
2022-11-12T07:05:00.158Z,3.36
2022-11-12T07:06:00.164Z,3.32
2022-11-12T07:07:00.300Z,3.32
2022-11-12T07:08:00.137Z,3.32
2022-11-12T07:09:00.133Z,3.32
2022-11-12T07:10:00.255Z,3.20
2022-11-12T07:11:00.092Z,3.17
2022-11-12T07:12:00.095Z,3.18
2022-11-12T07:13:00.093Z,3.21
2022-11-12T07:14:00.072Z,3.24
2022-11-12T07:15:00.076Z,3.28
2022-11-12T07:16:00.095Z,3.35
2022-11-12T07:17:00.019Z,3.31
2022-11-12T07:18:00.033Z,3.35
2022-11-12T07:19:00.007Z,3.40
2022-11-12T07:20:03.706Z,3.39
2022-11-12T07:20:59.982Z,3.50
2022-11-12T07:22:00.022Z,3.43
2022-11-12T07:22:59.969Z,3.47
2022-11-12T07:23:59.962Z,3.33
2022-11-12T07:24:59.947Z,3.45
2022-11-12T07:26:00.046Z,3.35
2022-11-12T07:26:59.926Z,3.39
2022-11-12T07:27:59.987Z,3.32
2022-11-12T07:28:59.896Z,3.31
2022-11-12T07:29:59.877Z,3.35
2022-11-12T07:30:59.873Z,3.42
2022-11-12T07:31:59.879Z,3.31
2022-11-12T07:32:59.841Z,3.33
2022-11-12T07:33:59.898Z,3.20
2022-11-12T07:34:59.820Z,3.23
2022-11-12T07:35:59.864Z,3.21
2022-11-12T07:36:59.816Z,3.18
2022-11-12T07:37:59.917Z,3.15
2022-11-12T07:38:59.807Z,3.20
2022-11-12T07:39:59.768Z,3.17
2022-11-12T07:40:59.790Z,3.13
2022-11-12T07:41:59.896Z,3.15
2022-11-12T07:42:59.756Z,3.05
2022-11-12T07:43:59.770Z,3.11
2022-11-12T07:44:59.707Z,2.93
2022-11-12T07:46:03.585Z,2.92
2022-11-12T07:47:00.703Z,2.97
2022-11-12T07:47:59.716Z,2.96
2022-11-12T07:48:59.691Z,2.96
2022-11-12T07:49:59.669Z,2.90
2022-11-12T07:50:59.641Z,2.93
2022-11-12T07:51:59.644Z,3.14
2022-11-12T07:52:59.634Z,3.21
2022-11-12T07:54:00.045Z,3.18
2022-11-12T07:54:59.657Z,3.24
2022-11-12T07:55:59.585Z,3.26
2022-11-12T07:56:59.592Z,3.31
2022-11-12T07:57:59.676Z,3.33
2022-11-12T07:58:59.566Z,3.31
2022-11-12T07:59:59.566Z,3.47
2022-11-12T08:00:59.570Z,3.43
2022-11-12T08:01:59.636Z,3.39
2022-11-12T08:02:59.515Z,3.32
2022-11-12T08:03:59.498Z,3.43
2022-11-12T08:04:59.493Z,3.51
2022-11-12T08:05:59.499Z,3.48
2022-11-12T08:06:59.532Z,3.33
2022-11-12T08:07:59.619Z,3.35
2022-11-12T08:08:59.545Z,3.33
2022-11-12T08:09:59.439Z,3.40
2022-11-12T08:10:59.452Z,3.36
2022-11-12T08:11:59.440Z,3.43
2022-11-12T08:12:59.417Z,3.52
2022-11-12T08:13:59.496Z,3.52
2022-11-12T08:14:59.407Z,3.33
2022-11-12T08:15:59.394Z,3.33
2022-11-12T08:16:59.377Z,3.47
2022-11-12T08:17:59.356Z,3.48
2022-11-12T08:18:59.334Z,3.48
2022-11-12T08:19:59.326Z,3.51
2022-11-12T08:20:59.310Z,3.52
2022-11-12T08:21:59.347Z,3.51
2022-11-12T08:22:59.311Z,3.57
2022-11-12T08:23:59.287Z,3.55
2022-11-12T08:24:59.261Z,3.62
2022-11-12T08:25:59.256Z,3.65
2022-11-12T08:26:59.253Z,3.66
2022-11-12T08:27:59.271Z,3.70
2022-11-12T08:29:02.697Z,3.72
2022-11-12T08:30:00.321Z,3.60
2022-11-12T08:30:59.196Z,3.60
2022-11-12T08:31:59.214Z,3.62
2022-11-12T08:32:59.186Z,3.73
2022-11-12T08:33:59.205Z,3.68
2022-11-12T08:34:59.158Z,3.66
2022-11-12T08:35:59.142Z,3.68
2022-11-12T08:36:59.135Z,3.80
2022-11-12T08:37:59.144Z,3.75
2022-11-12T08:38:59.126Z,3.75
2022-11-12T08:39:59.157Z,3.69
2022-11-12T08:40:59.100Z,3.68
2022-11-12T08:41:59.073Z,3.69
2022-11-12T08:42:59.082Z,3.62
2022-11-12T08:44:00.934Z,3.76
2022-11-12T08:45:00.055Z,3.73
2022-11-12T08:45:59.158Z,3.69
2022-11-12T08:46:59.021Z,3.75
2022-11-12T08:47:59.041Z,3.83
2022-11-12T08:48:58.994Z,3.84
2022-11-12T08:49:58.997Z,3.83
2022-11-12T08:50:58.996Z,3.84
2022-11-12T08:51:59.018Z,3.88
2022-11-12T08:52:58.949Z,3.88
2022-11-12T08:53:59.034Z,3.93
2022-11-12T08:54:58.930Z,3.83
2022-11-12T08:55:58.938Z,3.84
2022-11-12T08:56:58.934Z,3.87
2022-11-12T08:57:58.952Z,3.76
2022-11-12T08:58:58.900Z,3.83
2022-11-12T08:59:58.895Z,3.78
2022-11-12T09:00:58.890Z,3.80
2022-11-12T09:01:59.004Z,3.80
2022-11-12T09:02:58.845Z,3.83
2022-11-12T09:03:58.850Z,3.91
2022-11-12T09:04:58.893Z,3.88
2022-11-12T09:05:58.827Z,4.04
2022-11-12T09:06:58.849Z,3.94
2022-11-12T09:07:58.855Z,3.88
2022-11-12T09:08:58.808Z,3.83
2022-11-12T09:09:58.762Z,3.73
2022-11-12T09:10:58.820Z,3.78
2022-11-12T09:11:58.741Z,3.84
2022-11-12T09:12:58.746Z,3.83
2022-11-12T09:13:58.794Z,3.75
2022-11-12T09:15:09.568Z,3.72
2022-11-12T09:15:59.696Z,3.76
2022-11-12T09:16:58.689Z,3.73
2022-11-12T09:17:58.789Z,3.84
2022-11-12T09:18:58.679Z,3.90
2022-11-12T09:19:58.699Z,3.90
2022-11-12T09:20:58.654Z,3.97
2022-11-12T09:21:58.658Z,3.94
2022-11-12T09:22:58.634Z,4.08
2022-11-12T09:23:58.636Z,4.02
2022-11-12T09:24:58.614Z,4.11
2022-11-12T09:25:58.623Z,4.11
2022-11-12T09:26:58.598Z,4.12
2022-11-12T09:27:58.566Z,4.06
2022-11-12T09:28:58.550Z,4.20
2022-11-12T09:29:58.645Z,4.20
2022-11-12T09:30:58.560Z,4.20
2022-11-12T09:31:58.527Z,4.27
2022-11-12T09:32:58.527Z,4.22
2022-11-12T09:33:58.611Z,4.04
2022-11-12T09:34:58.490Z,4.22
2022-11-12T09:35:58.519Z,4.24
2022-11-12T09:36:58.494Z,4.32
2022-11-12T09:37:58.566Z,4.32
2022-11-12T09:38:58.440Z,4.30
2022-11-12T09:39:58.449Z,4.32
2022-11-12T09:40:58.429Z,4.33
2022-11-12T09:42:01.947Z,4.42
2022-11-12T09:42:58.463Z,4.37
2022-11-12T09:43:58.406Z,4.37
2022-11-12T09:44:58.374Z,4.32
2022-11-12T09:46:13.966Z,4.36
2022-11-12T09:46:59.356Z,4.34
2022-11-12T09:47:58.370Z,4.34
2022-11-12T09:48:58.347Z,4.24
2022-11-12T09:49:58.450Z,4.22
2022-11-12T09:50:58.354Z,4.24
2022-11-12T09:51:58.299Z,4.14
2022-11-12T09:52:58.295Z,4.29
2022-11-12T09:53:58.301Z,4.29
2022-11-12T09:54:58.288Z,4.36
2022-11-12T09:55:58.254Z,4.36
2022-11-12T09:56:58.288Z,4.44
2022-11-12T09:57:58.262Z,4.48
2022-11-12T09:58:58.240Z,4.34
2022-11-12T09:59:58.217Z,4.48
2022-11-12T10:00:58.218Z,4.44
2022-11-12T10:01:58.318Z,4.44
2022-11-12T10:02:58.183Z,4.40
2022-11-12T10:03:58.195Z,4.45
2022-11-12T10:04:58.175Z,4.44
2022-11-12T10:05:58.271Z,4.37
2022-11-12T10:06:58.144Z,4.48
2022-11-12T10:07:58.142Z,4.48
2022-11-12T10:08:58.109Z,4.41
2022-11-12T10:09:58.134Z,4.45
2022-11-12T10:10:58.113Z,4.54
2022-11-12T10:12:03.807Z,4.67
2022-11-12T10:12:59.072Z,4.69
2022-11-12T10:13:58.068Z,4.77
2022-11-12T10:14:58.049Z,4.80
2022-11-12T10:15:58.061Z,4.89
2022-11-12T10:16:58.055Z,4.85
2022-11-12T10:17:58.128Z,4.99
2022-11-12T10:18:57.996Z,5.03
2022-11-12T10:19:58.004Z,5.09
2022-11-12T10:20:57.988Z,5.04
2022-11-12T10:21:58.076Z,5.09
2022-11-12T10:22:58.004Z,5.17
2022-11-12T10:23:57.964Z,5.21
2022-11-12T10:24:57.935Z,5.15
2022-11-12T10:25:57.920Z,5.21
2022-11-12T10:26:57.928Z,5.28
2022-11-12T10:27:57.898Z,5.20
2022-11-12T10:28:57.969Z,5.22
2022-11-12T10:29:57.909Z,5.25
2022-11-12T10:30:57.876Z,5.25
2022-11-12T10:31:57.863Z,5.25
2022-11-12T10:32:57.861Z,5.30
2022-11-12T10:33:57.837Z,5.36
2022-11-12T10:34:57.844Z,5.30
2022-11-12T10:35:57.848Z,5.33
2022-11-12T10:36:57.835Z,5.35
2022-11-12T10:37:57.906Z,5.42
2022-11-12T10:38:57.803Z,5.43
2022-11-12T10:39:57.775Z,5.39
2022-11-12T10:40:57.766Z,5.39
2022-11-12T10:41:57.749Z,5.38
2022-11-12T10:42:57.786Z,5.45
2022-11-12T10:43:57.736Z,5.48
2022-11-12T10:44:57.753Z,5.45
2022-11-12T10:45:57.710Z,5.51
2022-11-12T10:46:57.687Z,5.51
2022-11-12T10:47:57.684Z,5.56
2022-11-12T10:48:57.730Z,5.56
2022-11-12T10:49:57.677Z,5.58
2022-11-12T10:50:57.646Z,5.58
2022-11-12T10:51:57.649Z,5.74
2022-11-12T10:52:57.619Z,5.65
2022-11-12T10:53:57.730Z,5.63
2022-11-12T10:54:57.610Z,5.71
2022-11-12T10:55:57.614Z,5.76
2022-11-12T10:56:57.587Z,5.79
2022-11-12T10:57:57.580Z,5.83
2022-11-12T10:58:57.587Z,5.79
2022-11-12T10:59:57.553Z,5.83
2022-11-12T11:00:57.551Z,5.86
2022-11-12T11:01:57.619Z,5.91
2022-11-12T11:02:57.526Z,5.82
2022-11-12T11:03:57.496Z,5.89
2022-11-12T11:04:57.494Z,5.86
2022-11-12T11:05:57.570Z,5.90
2022-11-12T11:06:57.538Z,5.97
2022-11-12T11:07:57.457Z,6.00
2022-11-12T11:08:57.452Z,5.97
2022-11-12T11:09:57.550Z,6.00
2022-11-12T11:10:57.435Z,6.01
2022-11-12T11:11:57.428Z,6.03
2022-11-12T11:12:57.445Z,6.17
2022-11-12T11:13:57.394Z,6.15
2022-11-12T11:14:57.389Z,6.08
2022-11-12T11:15:57.365Z,6.04
2022-11-12T11:16:57.353Z,6.14
2022-11-12T11:17:57.358Z,6.19
2022-11-12T11:18:57.375Z,6.18
2022-11-12T11:19:57.335Z,6.25
2022-11-12T11:20:57.338Z,6.18
2022-11-12T11:21:57.305Z,6.27
2022-11-12T11:22:57.293Z,6.21
2022-11-12T11:23:57.292Z,6.25
2022-11-12T11:24:57.269Z,6.21
2022-11-12T11:25:57.388Z,6.22
2022-11-12T11:26:57.271Z,6.30
2022-11-12T11:27:57.228Z,6.28
2022-11-12T11:28:57.232Z,6.27
2022-11-12T11:29:57.386Z,6.28
2022-11-12T11:30:57.234Z,6.36
2022-11-12T11:31:57.188Z,6.28
2022-11-12T11:32:57.177Z,6.36
2022-11-12T11:33:57.160Z,6.33
2022-11-12T11:34:57.170Z,6.33
2022-11-12T11:35:57.170Z,6.37
2022-11-12T11:36:57.142Z,6.36
2022-11-12T11:37:58.628Z,6.38
2022-11-12T11:38:57.189Z,6.37
2022-11-12T11:39:57.116Z,6.41
2022-11-12T11:40:57.106Z,6.51
2022-11-12T11:41:57.189Z,6.52
2022-11-12T11:42:57.076Z,6.54
2022-11-12T11:43:57.109Z,6.46
2022-11-12T11:44:57.079Z,6.54
2022-11-12T11:45:57.039Z,6.55
2022-11-12T11:46:57.045Z,6.54
2022-11-12T11:48:01.555Z,6.54
2022-11-12T11:48:57.996Z,6.51
2022-11-12T11:49:57.025Z,6.46
2022-11-12T11:50:56.971Z,6.55
2022-11-12T11:51:57.002Z,6.51
2022-11-12T11:52:57.660Z,6.58
2022-11-12T11:53:56.951Z,6.51
2022-11-12T11:54:56.946Z,6.58
2022-11-12T11:55:56.929Z,6.70
2022-11-12T11:56:56.933Z,6.67
2022-11-12T11:57:57.130Z,6.67
2022-11-12T11:58:56.884Z,6.69
2022-11-12T11:59:56.883Z,6.71
2022-11-12T12:00:56.859Z,6.74
2022-11-12T12:01:56.861Z,6.71
2022-11-12T12:02:56.848Z,6.71
2022-11-12T12:03:56.918Z,6.80
2022-11-12T12:04:56.858Z,6.74
2022-11-12T12:05:56.819Z,6.79
2022-11-12T12:06:56.896Z,6.74
2022-11-12T12:07:56.779Z,6.81
2022-11-12T12:09:05.233Z,6.88
2022-11-12T12:09:56.795Z,6.85
2022-11-12T12:11:12.264Z,6.89
2022-11-12T12:11:57.750Z,6.88
2022-11-12T12:12:56.742Z,6.85
2022-11-12T12:13:56.832Z,6.88
2022-11-12T12:14:56.725Z,6.91
2022-11-12T12:15:56.696Z,6.89
2022-11-12T12:16:56.695Z,6.88
2022-11-12T12:17:56.705Z,6.92
2022-11-12T12:18:56.708Z,6.95
2022-11-12T12:19:56.657Z,7.02
2022-11-12T12:20:56.679Z,6.98
2022-11-12T12:21:56.671Z,7.10
2022-11-12T12:22:56.631Z,7.02
2022-11-12T12:23:56.608Z,7.03
2022-11-12T12:24:56.595Z,7.07
2022-11-12T12:26:00.242Z,7.06
2022-11-12T12:26:56.605Z,7.15
2022-11-12T12:27:56.570Z,7.12
2022-11-12T12:28:56.563Z,7.12
2022-11-12T12:29:56.657Z,7.16
2022-11-12T12:30:56.528Z,7.21
2022-11-12T12:31:56.549Z,7.17
2022-11-12T12:32:56.543Z,7.20
2022-11-12T12:33:56.497Z,7.21
2022-11-12T12:34:56.480Z,7.16
2022-11-12T12:35:56.485Z,7.16
2022-11-12T12:36:56.468Z,7.10
2022-11-12T12:37:56.482Z,7.21
2022-11-12T12:38:56.442Z,7.17
2022-11-12T12:39:56.438Z,7.17
2022-11-12T12:40:56.415Z,7.16
2022-11-12T12:41:56.434Z,7.16
2022-11-12T12:42:56.406Z,7.10
2022-11-12T12:43:56.406Z,7.23
2022-11-12T12:44:56.386Z,7.15
2022-11-12T12:45:56.532Z,7.20
2022-11-12T12:46:56.358Z,7.16
2022-11-12T12:47:56.340Z,7.28
2022-11-12T12:48:56.342Z,7.27
2022-11-12T12:49:56.356Z,7.21
2022-11-12T12:50:56.350Z,7.24
2022-11-12T12:51:56.287Z,7.21
2022-11-12T12:52:56.298Z,7.16
2022-11-12T12:53:56.278Z,7.13
2022-11-12T12:54:56.275Z,7.15
2022-11-12T12:55:56.252Z,7.21
2022-11-12T12:56:56.257Z,7.21
2022-11-12T12:57:56.252Z,7.16
2022-11-12T12:58:56.213Z,7.20
2022-11-12T12:59:56.212Z,7.23
2022-11-12T13:00:56.251Z,7.17
2022-11-12T13:01:56.303Z,7.12
2022-11-12T13:02:56.187Z,7.12
2022-11-12T13:03:56.204Z,7.12
2022-11-12T13:04:56.152Z,7.13
2022-11-12T13:05:56.150Z,7.13
2022-11-12T13:06:56.236Z,7.17
2022-11-12T13:07:56.122Z,7.16
2022-11-12T13:08:56.128Z,7.25
2022-11-12T13:09:56.141Z,7.17
2022-11-12T13:10:56.124Z,7.17
2022-11-12T13:11:56.097Z,7.20
2022-11-12T13:12:56.065Z,7.07
2022-11-12T13:13:56.053Z,7.17
2022-11-12T13:14:56.040Z,7.17
2022-11-12T13:15:56.021Z,7.31
2022-11-12T13:16:56.038Z,7.16
2022-11-12T13:17:56.122Z,7.20